createdAt,value
2023-02-22T00:01:50.573Z,100.00
2023-02-22T00:04:21.208Z,99.93
2023-02-22T00:06:49.691Z,100.00
2023-02-22T00:09:20.519Z,99.99
2023-02-22T00:11:48.797Z,99.87
2023-02-22T00:14:15.562Z,99.82
2023-02-22T00:16:42.186Z,99.99
2023-02-22T00:19:08.725Z,99.79
2023-02-22T00:21:35.243Z,100.00
2023-02-22T00:24:17.079Z,99.83
2023-02-22T00:26:43.602Z,99.82
2023-02-22T00:29:10.121Z,99.70
2023-02-22T00:31:39.652Z,100.00
2023-02-22T00:34:06.224Z,99.92
2023-02-22T00:36:32.714Z,99.77
2023-02-22T00:38:59.503Z,99.93
2023-02-22T00:41:26.099Z,99.83
2023-02-22T00:43:52.629Z,99.69
2023-02-22T00:46:19.092Z,99.86
2023-02-22T00:48:45.547Z,99.55
2023-02-22T00:51:12.064Z,99.69
2023-02-22T00:53:38.579Z,100.00
2023-02-22T00:56:05.509Z,99.45
2023-02-22T00:58:32.021Z,99.80
2023-02-22T01:00:58.601Z,99.94
2023-02-22T01:03:25.128Z,99.85
2023-02-22T01:05:51.634Z,99.79
2023-02-22T01:08:18.328Z,99.91
2023-02-22T01:10:45.263Z,99.76
2023-02-22T01:13:13.175Z,100.00
2023-02-22T01:15:42.237Z,100.00
2023-02-22T01:18:09.641Z,100.00
2023-02-22T01:20:36.874Z,100.00
2023-02-22T01:23:06.832Z,99.98
2023-02-22T01:25:34.855Z,100.00
2023-02-22T01:28:02.774Z,99.99
2023-02-22T01:30:35.538Z,100.00
2023-02-22T01:33:03.911Z,100.00
2023-02-22T01:35:33.016Z,100.00
2023-02-22T01:37:59.620Z,100.00
2023-02-22T01:40:30.239Z,100.00
2023-02-22T01:43:02.890Z,99.89
2023-02-22T01:45:35.410Z,99.69
2023-02-22T01:48:11.557Z,100.00
2023-02-22T01:51:00.733Z,100.00
2023-02-22T01:53:35.787Z,99.25
2023-02-22T01:56:04.156Z,99.51
2023-02-22T01:58:33.786Z,99.64
2023-02-22T02:01:01.227Z,99.32
2023-02-22T02:03:35.420Z,99.47
2023-02-22T02:06:05.253Z,99.08
2023-02-22T02:09:00.731Z,99.31
2023-02-22T02:11:28.216Z,99.89
2023-02-22T02:13:57.795Z,99.68
2023-02-22T02:17:01.483Z,99.82
2023-02-22T02:20:08.201Z,99.41
2023-02-22T02:22:38.445Z,99.71
2023-02-22T02:25:34.221Z,99.32
2023-02-22T02:28:27.865Z,99.34
2023-02-22T02:31:09.964Z,99.53
2023-02-22T02:34:01.692Z,99.77
2023-02-22T02:36:47.430Z,99.69
2023-02-22T02:39:27.649Z,99.68
2023-02-22T02:41:54.292Z,99.44
2023-02-22T02:44:51.213Z,99.47
2023-02-22T02:47:24.837Z,98.90
2023-02-22T02:49:58.103Z,99.25
2023-02-22T02:52:26.120Z,99.07
2023-02-22T02:54:54.886Z,99.09
2023-02-22T02:57:21.944Z,99.26
2023-02-22T02:59:48.546Z,99.40
2023-02-22T03:02:46.041Z,99.60
2023-02-22T03:05:31.923Z,99.58
2023-02-22T03:08:07.815Z,99.19
2023-02-22T03:10:50.391Z,99.09
2023-02-22T03:14:18.532Z,99.27
2023-02-22T03:17:12.856Z,99.00
2023-02-22T03:19:58.527Z,99.29
2023-02-22T03:22:34.601Z,99.34
2023-02-22T03:25:28.993Z,99.73
2023-02-22T03:28:02.979Z,99.32
2023-02-22T03:30:41.559Z,99.56
2023-02-22T03:33:43.493Z,99.17
2023-02-22T03:36:18.709Z,99.30
2023-02-22T03:38:46.968Z,99.44
2023-02-22T03:41:18.842Z,99.36
2023-02-22T03:43:50.757Z,99.45
2023-02-22T03:46:19.405Z,99.74
2023-02-22T03:48:51.017Z,99.64
2023-02-22T03:51:18.714Z,99.65
2023-02-22T03:53:45.564Z,99.43
2023-02-22T03:56:20.143Z,100.00
2023-02-22T03:58:48.067Z,100.00
2023-02-22T04:01:15.710Z,100.00
2023-02-22T04:03:42.851Z,99.73
2023-02-22T04:06:09.946Z,99.68
2023-02-22T04:08:36.468Z,99.42
2023-02-22T04:11:02.989Z,100.00
2023-02-22T04:13:29.631Z,100.00
2023-02-22T04:15:56.101Z,100.00
2023-02-22T04:18:22.607Z,100.00
2023-02-22T04:20:49.142Z,99.84
2023-02-22T04:23:17.041Z,100.00
2023-02-22T04:25:43.734Z,100.00
2023-02-22T04:28:10.317Z,99.89
2023-02-22T04:30:36.945Z,100.00
2023-02-22T04:33:03.567Z,100.00
2023-02-22T04:35:30.067Z,100.00
2023-02-22T04:37:56.571Z,100.00
2023-02-22T04:40:23.079Z,100.00
2023-02-22T04:42:49.858Z,100.00
2023-02-22T04:45:16.424Z,100.00
2023-02-22T04:47:42.962Z,100.00
2023-02-22T04:50:11.367Z,100.00
2023-02-22T04:52:37.858Z,100.00
2023-02-22T04:55:05.260Z,100.00
2023-02-22T04:57:31.914Z,100.00
2023-02-22T04:59:58.585Z,100.00
2023-02-22T05:02:25.307Z,100.00
2023-02-22T05:04:51.972Z,100.00
2023-02-22T05:07:18.432Z,100.00
2023-02-22T05:09:44.972Z,100.00
2023-02-22T05:12:11.510Z,100.00
2023-02-22T05:14:38.491Z,100.00
2023-02-22T05:17:05.107Z,100.00
2023-02-22T05:19:31.624Z,100.00
2023-02-22T05:21:58.180Z,100.00
2023-02-22T05:24:24.844Z,100.00
2023-02-22T05:26:51.594Z,100.00
2023-02-22T05:29:18.319Z,100.00
2023-02-22T05:31:44.854Z,100.00
2023-02-22T05:34:11.546Z,100.00
2023-02-22T05:36:38.110Z,100.00
2023-02-22T05:39:05.472Z,100.00
2023-02-22T05:41:31.980Z,100.00
2023-02-22T05:43:58.498Z,100.00
2023-02-22T05:46:25.254Z,100.00
2023-02-22T05:48:51.813Z,100.00
2023-02-22T05:51:19.674Z,100.00
2023-02-22T05:53:46.407Z,100.00
2023-02-22T05:56:13.123Z,100.00
2023-02-22T05:58:39.602Z,100.00
2023-02-22T06:01:06.170Z,100.00
2023-02-22T06:03:32.690Z,100.00
2023-02-22T06:05:59.200Z,100.00
2023-02-22T06:08:25.735Z,100.00
2023-02-22T06:10:52.216Z,100.00
2023-02-22T06:13:18.689Z,100.00
2023-02-22T06:15:45.110Z,100.00
2023-02-22T06:18:11.846Z,100.00
2023-02-22T06:20:38.321Z,100.00
2023-02-22T06:23:04.820Z,100.00
2023-02-22T06:25:31.942Z,100.00
2023-02-22T06:28:00.175Z,100.00
2023-02-22T06:30:29.875Z,100.00
2023-02-22T06:32:58.061Z,100.00
2023-02-22T06:35:25.325Z,100.00
2023-02-22T06:37:55.338Z,100.00
2023-02-22T06:40:21.897Z,100.00
2023-02-22T06:42:49.483Z,100.00
2023-02-22T06:45:18.207Z,100.00
2023-02-22T06:47:45.631Z,100.00
2023-02-22T06:50:30.260Z,100.00
2023-02-22T06:52:58.427Z,100.00
2023-02-22T06:55:29.933Z,100.00
2023-02-22T06:57:56.661Z,100.00
2023-02-22T07:00:25.764Z,100.00
2023-02-22T07:02:53.016Z,100.00
2023-02-22T07:05:22.506Z,100.00
2023-02-22T07:07:50.804Z,100.00
2023-02-22T07:10:27.027Z,100.00
2023-02-22T07:12:56.174Z,100.00
2023-02-22T07:15:25.003Z,100.00
2023-02-22T07:17:52.527Z,100.00
2023-02-22T07:20:20.852Z,100.00
2023-02-22T07:22:48.259Z,100.00
2023-02-22T07:25:14.809Z,100.00
2023-02-22T07:27:42.192Z,100.00
2023-02-22T07:30:17.055Z,100.00
2023-02-22T07:32:44.179Z,100.00
2023-02-22T07:35:19.004Z,100.00
2023-02-22T07:37:45.626Z,100.00
2023-02-22T07:40:12.568Z,100.00
2023-02-22T07:42:55.437Z,100.00
2023-02-22T07:45:23.428Z,100.00
2023-02-22T07:47:50.023Z,100.00
2023-02-22T07:50:18.261Z,100.00
2023-02-22T07:52:48.843Z,100.00
2023-02-22T07:55:18.018Z,100.00
2023-02-22T07:57:49.407Z,100.00
2023-02-22T08:00:23.410Z,100.00
2023-02-22T08:02:49.974Z,100.00
2023-02-22T08:05:16.571Z,100.00
2023-02-22T08:07:43.377Z,100.00
2023-02-22T08:10:10.990Z,100.00
2023-02-22T08:12:38.335Z,100.00
2023-02-22T08:15:08.186Z,100.00
2023-02-22T08:17:34.912Z,100.00
2023-02-22T08:20:01.729Z,100.00
2023-02-22T08:22:29.181Z,100.00
2023-02-22T08:24:55.831Z,100.00
2023-02-22T08:27:26.880Z,100.00
2023-02-22T08:29:53.543Z,100.00
2023-02-22T08:32:20.926Z,100.00
2023-02-22T08:34:47.767Z,100.00
2023-02-22T08:37:15.980Z,100.00
2023-02-22T08:39:43.513Z,100.00
2023-02-22T08:42:10.379Z,100.00
2023-02-22T08:44:38.730Z,100.00
2023-02-22T08:47:06.632Z,100.00
2023-02-22T08:49:33.384Z,100.00
2023-02-22T08:51:59.957Z,100.00
2023-02-22T08:54:26.447Z,100.00
2023-02-22T08:56:52.938Z,100.00
2023-02-22T08:59:19.467Z,100.00
2023-02-22T09:01:46.055Z,100.00
2023-02-22T09:04:12.844Z,100.00
2023-02-22T09:06:44.130Z,100.00
2023-02-22T09:09:10.660Z,100.00
2023-02-22T09:11:37.303Z,100.00
2023-02-22T09:14:03.829Z,100.00
2023-02-22T09:16:31.074Z,100.00
2023-02-22T09:18:57.773Z,100.00
2023-02-22T09:21:24.338Z,100.00
2023-02-22T09:23:50.804Z,100.00
2023-02-22T09:26:17.383Z,100.00
2023-02-22T09:28:43.856Z,99.96
2023-02-22T09:31:10.409Z,99.75
2023-02-22T09:33:36.954Z,99.58
2023-02-22T09:36:03.738Z,99.37
2023-02-22T09:38:30.336Z,98.92
2023-02-22T09:41:16.504Z,99.26
2023-02-22T09:44:01.042Z,99.46
2023-02-22T09:46:38.836Z,98.78
2023-02-22T09:49:19.420Z,98.55
2023-02-22T09:52:24.369Z,97.87
2023-02-22T09:54:57.997Z,97.11
2023-02-22T09:57:32.627Z,97.76
2023-02-22T10:00:15.066Z,97.07
2023-02-22T10:02:57.549Z,97.27
2023-02-22T10:05:29.346Z,96.36
2023-02-22T10:08:05.955Z,96.29
2023-02-22T10:10:37.230Z,96.20
2023-02-22T10:13:29.205Z,95.84
2023-02-22T10:16:02.519Z,95.02
2023-02-22T10:18:57.373Z,94.92
2023-02-22T10:21:52.214Z,94.51
2023-02-22T10:24:46.964Z,94.88
2023-02-22T10:27:19.982Z,93.73
2023-02-22T10:29:57.214Z,92.56
2023-02-22T10:32:32.308Z,91.64
2023-02-22T10:35:05.501Z,92.15
2023-02-22T10:37:34.477Z,92.07
2023-02-22T10:40:32.035Z,92.36
2023-02-22T10:43:08.270Z,91.79
2023-02-22T10:45:37.198Z,91.61
2023-02-22T10:48:18.553Z,90.55
2023-02-22T10:50:46.871Z,90.18
2023-02-22T10:53:17.169Z,91.21
2023-02-22T10:56:18.456Z,89.97
2023-02-22T10:59:01.471Z,89.75
2023-02-22T11:01:30.788Z,88.97
2023-02-22T11:03:58.709Z,88.87
2023-02-22T11:06:25.425Z,89.23
2023-02-22T11:09:03.584Z,88.60
2023-02-22T11:11:30.045Z,89.16
2023-02-22T11:13:57.675Z,89.63
2023-02-22T11:16:39.085Z,89.92
2023-02-22T11:19:17.648Z,90.03
2023-02-22T11:21:44.734Z,90.68
2023-02-22T11:24:14.309Z,91.09
2023-02-22T11:26:49.205Z,91.37
2023-02-22T11:29:21.853Z,90.76
2023-02-22T11:31:52.048Z,90.00
2023-02-22T11:34:28.375Z,89.41
2023-02-22T11:36:54.955Z,87.54
2023-02-22T11:39:24.101Z,87.74
2023-02-22T11:41:51.163Z,87.11
2023-02-22T11:44:32.685Z,87.47
2023-02-22T11:47:06.946Z,86.96
2023-02-22T11:49:38.187Z,86.40
2023-02-22T11:52:28.375Z,86.04
2023-02-22T11:55:09.934Z,86.74
2023-02-22T11:57:39.530Z,86.98
2023-02-22T12:00:24.838Z,86.58
2023-02-22T12:03:23.389Z,87.72
2023-02-22T12:06:02.015Z,87.03
2023-02-22T12:09:00.224Z,87.63
2023-02-22T12:11:43.189Z,87.71
2023-02-22T12:14:09.645Z,87.80
2023-02-22T12:16:45.326Z,87.75
2023-02-22T12:19:26.917Z,88.14
2023-02-22T12:22:09.346Z,88.58
2023-02-22T12:25:08.555Z,89.04
2023-02-22T12:27:49.214Z,87.99
2023-02-22T12:30:23.966Z,88.53
2023-02-22T12:32:59.028Z,87.36
2023-02-22T12:35:28.907Z,87.28
2023-02-22T12:38:09.433Z,87.27
2023-02-22T12:41:18.324Z,86.99
2023-02-22T12:44:06.494Z,86.75
2023-02-22T12:46:36.375Z,86.31
2023-02-22T12:49:24.243Z,86.72
2023-02-22T12:52:21.924Z,85.64
2023-02-22T12:55:29.368Z,85.00
2023-02-22T12:58:09.732Z,84.85
2023-02-22T13:00:56.893Z,84.22
2023-02-22T13:03:35.716Z,84.13
2023-02-22T13:06:20.487Z,84.21
2023-02-22T13:08:53.086Z,84.50
2023-02-22T13:11:25.598Z,83.98
2023-02-22T13:14:01.738Z,84.17
2023-02-22T13:16:52.645Z,84.04
2023-02-22T13:19:49.011Z,84.74
2023-02-22T13:22:26.784Z,84.46
2023-02-22T13:25:14.896Z,83.96
2023-02-22T13:27:44.482Z,83.98
2023-02-22T13:30:20.070Z,84.26
2023-02-22T13:33:09.380Z,83.84
2023-02-22T13:36:08.105Z,85.08
2023-02-22T13:39:10.383Z,85.02
2023-02-22T13:42:08.028Z,85.34
2023-02-22T13:44:46.567Z,84.79
2023-02-22T13:47:36.357Z,85.44
2023-02-22T13:50:30.034Z,85.31
2023-02-22T13:52:58.054Z,85.05
2023-02-22T13:55:29.883Z,84.97
2023-02-22T13:58:04.047Z,85.06
2023-02-22T14:00:47.759Z,84.84
2023-02-22T14:03:14.130Z,84.20
2023-02-22T14:05:44.800Z,84.40
2023-02-22T14:08:14.398Z,84.03
2023-02-22T14:10:43.757Z,84.62
2023-02-22T14:13:11.046Z,84.80
2023-02-22T14:16:00.723Z,84.57
2023-02-22T14:18:46.656Z,84.69
2023-02-22T14:21:21.702Z,85.08
2023-02-22T14:23:53.031Z,84.94
2023-02-22T14:26:27.785Z,84.98
2023-02-22T14:29:03.405Z,85.22
2023-02-22T14:31:37.023Z,84.86
2023-02-22T14:34:04.209Z,85.51
2023-02-22T14:36:38.770Z,85.38
2023-02-22T14:39:23.530Z,85.24
2023-02-22T14:42:02.640Z,85.63
2023-02-22T14:45:11.987Z,86.08
2023-02-22T14:48:11.617Z,85.35
2023-02-22T14:50:41.025Z,84.94
2023-02-22T14:53:13.266Z,85.35
2023-02-22T14:56:02.709Z,85.42
2023-02-22T14:58:47.517Z,84.97
2023-02-22T15:01:40.563Z,85.08
2023-02-22T15:04:25.575Z,85.74
2023-02-22T15:06:53.701Z,85.80
2023-02-22T15:09:25.741Z,86.27
2023-02-22T15:12:18.390Z,86.72
2023-02-22T15:14:47.696Z,87.09
2023-02-22T15:17:19.906Z,86.40
2023-02-22T15:19:48.817Z,86.33
2023-02-22T15:22:22.613Z,86.64
2023-02-22T15:25:02.092Z,86.98
2023-02-22T15:27:29.022Z,87.50
2023-02-22T15:30:04.480Z,87.36
2023-02-22T15:32:36.200Z,87.54
2023-02-22T15:35:25.517Z,87.84
2023-02-22T15:38:11.777Z,87.22
2023-02-22T15:40:43.291Z,87.69
2023-02-22T15:43:32.076Z,88.00
2023-02-22T15:45:59.914Z,88.09
2023-02-22T15:48:28.024Z,87.81
2023-02-22T15:51:14.095Z,87.82
2023-02-22T15:53:44.054Z,87.76
2023-02-22T15:56:16.878Z,88.66
2023-02-22T15:58:46.859Z,88.52
2023-02-22T16:01:17.080Z,88.59
2023-02-22T16:03:56.074Z,89.44
2023-02-22T16:06:38.598Z,89.35
2023-02-22T16:09:11.364Z,89.61
2023-02-22T16:11:44.258Z,89.56
2023-02-22T16:14:40.358Z,90.15
2023-02-22T16:17:30.696Z,90.09
2023-02-22T16:20:02.191Z,89.81
2023-02-22T16:22:34.686Z,90.72
2023-02-22T16:25:18.532Z,89.88
2023-02-22T16:27:57.885Z,90.30
2023-02-22T16:30:26.164Z,90.88
2023-02-22T16:32:55.532Z,90.65
2023-02-22T16:35:28.719Z,90.52
2023-02-22T16:38:03.890Z,91.26
2023-02-22T16:40:34.591Z,91.40
2023-02-22T16:43:07.912Z,91.69
2023-02-22T16:45:36.171Z,91.85
2023-02-22T16:48:14.620Z,91.91
2023-02-22T16:50:41.634Z,92.69
2023-02-22T16:53:08.317Z,92.56
2023-02-22T16:55:36.608Z,92.62
2023-02-22T16:58:04.715Z,92.57
2023-02-22T17:00:31.672Z,92.67
2023-02-22T17:03:04.325Z,92.82
2023-02-22T17:05:32.342Z,92.98
2023-02-22T17:07:58.872Z,93.62
2023-02-22T17:10:26.178Z,93.68
2023-02-22T17:12:56.233Z,93.85
2023-02-22T17:15:28.258Z,93.84
2023-02-22T17:17:56.686Z,94.41
2023-02-22T17:20:30.229Z,93.84
2023-02-22T17:23:02.527Z,94.41
2023-02-22T17:25:33.193Z,94.16
2023-02-22T17:27:59.726Z,94.25
2023-02-22T17:30:26.872Z,93.76
2023-02-22T17:32:56.068Z,94.02
2023-02-22T17:35:23.847Z,94.39
2023-02-22T17:37:50.380Z,94.01
2023-02-22T17:40:17.361Z,94.16
2023-02-22T17:42:45.715Z,93.88
2023-02-22T17:45:14.106Z,94.33
2023-02-22T17:47:44.115Z,94.22
2023-02-22T17:50:11.498Z,94.07
2023-02-22T17:52:38.639Z,94.41
2023-02-22T17:55:06.494Z,94.36
2023-02-22T17:57:33.229Z,94.48
2023-02-22T18:00:00.760Z,94.91
2023-02-22T18:02:27.517Z,94.79
2023-02-22T18:04:54.051Z,94.87
2023-02-22T18:07:20.573Z,94.73
2023-02-22T18:09:47.399Z,95.08
2023-02-22T18:12:13.874Z,95.28
2023-02-22T18:14:40.372Z,94.82
2023-02-22T18:17:06.845Z,95.41
2023-02-22T18:19:34.556Z,95.00
2023-02-22T18:22:03.057Z,94.87
2023-02-22T18:24:36.523Z,95.03
2023-02-22T18:27:06.044Z,95.63
2023-02-22T18:29:32.774Z,95.20
2023-02-22T18:31:59.523Z,96.03
2023-02-22T18:34:26.148Z,95.97
2023-02-22T18:36:52.723Z,95.77
2023-02-22T18:39:19.265Z,96.04
2023-02-22T18:41:48.630Z,95.84
2023-02-22T18:44:16.115Z,96.32
2023-02-22T18:46:46.176Z,96.38
2023-02-22T18:49:13.840Z,96.42
2023-02-22T18:51:43.567Z,96.38
2023-02-22T18:54:12.479Z,96.57
2023-02-22T18:56:40.276Z,97.07
2023-02-22T18:59:11.970Z,96.59
2023-02-22T19:01:40.312Z,96.93
2023-02-22T19:04:12.705Z,97.30
2023-02-22T19:06:39.908Z,97.04
2023-02-22T19:09:09.438Z,97.13
2023-02-22T19:11:37.078Z,97.19
2023-02-22T19:14:05.107Z,97.15
2023-02-22T19:16:32.945Z,97.44
2023-02-22T19:18:59.644Z,97.95
2023-02-22T19:21:28.872Z,97.71
2023-02-22T19:23:56.282Z,97.96
2023-02-22T19:26:25.684Z,97.77
2023-02-22T19:28:54.722Z,97.71
2023-02-22T19:31:23.030Z,98.30
2023-02-22T19:33:53.048Z,98.06
2023-02-22T19:36:20.706Z,97.66
2023-02-22T19:38:47.497Z,97.92
2023-02-22T19:41:18.270Z,97.99
2023-02-22T19:43:46.411Z,98.05
2023-02-22T19:46:13.318Z,97.97
2023-02-22T19:48:41.278Z,98.05
2023-02-22T19:51:10.937Z,98.17
2023-02-22T19:53:41.917Z,98.37
2023-02-22T19:56:11.348Z,98.27
2023-02-22T19:58:39.770Z,98.58
2023-02-22T20:01:12.781Z,98.61
2023-02-22T20:03:39.829Z,98.62
2023-02-22T20:06:09.147Z,98.38
2023-02-22T20:08:37.638Z,98.91
2023-02-22T20:11:05.797Z,98.95
2023-02-22T20:13:33.526Z,98.73
2023-02-22T20:16:00.628Z,99.09
2023-02-22T20:18:27.083Z,98.66
2023-02-22T20:20:53.568Z,98.53
2023-02-22T20:23:20.079Z,98.95
2023-02-22T20:25:56.659Z,99.11
2023-02-22T20:28:24.372Z,98.91
2023-02-22T20:30:51.759Z,99.10
2023-02-22T20:33:19.237Z,99.03
2023-02-22T20:35:46.793Z,99.19
2023-02-22T20:38:14.528Z,98.92
2023-02-22T20:40:42.534Z,99.16
2023-02-22T20:43:09.758Z,99.13
2023-02-22T20:45:38.238Z,99.04
2023-02-22T20:48:05.737Z,99.07
2023-02-22T20:50:34.581Z,98.62
2023-02-22T20:53:01.023Z,98.87
2023-02-22T20:55:27.615Z,99.04
2023-02-22T20:57:54.175Z,99.00
2023-02-22T21:00:20.727Z,99.01
2023-02-22T21:02:47.291Z,98.86
2023-02-22T21:05:14.263Z,99.12
2023-02-22T21:07:40.754Z,99.12
2023-02-22T21:10:07.534Z,99.55
2023-02-22T21:12:34.864Z,99.08
2023-02-22T21:15:01.393Z,99.44
2023-02-22T21:17:30.974Z,99.19
2023-02-22T21:19:58.466Z,99.10
2023-02-22T21:22:25.280Z,99.33
2023-02-22T21:24:52.188Z,99.55
2023-02-22T21:27:19.153Z,99.25
2023-02-22T21:29:45.698Z,99.19
2023-02-22T21:32:13.853Z,99.54
2023-02-22T21:34:40.842Z,99.69
2023-02-22T21:37:08.495Z,99.62
2023-02-22T21:39:35.492Z,99.27
2023-02-22T21:42:02.509Z,99.30
2023-02-22T21:44:29.306Z,99.65
2023-02-22T21:46:55.947Z,99.55
2023-02-22T21:49:23.243Z,99.90
2023-02-22T21:51:51.704Z,99.61
2023-02-22T21:54:18.732Z,99.86
2023-02-22T21:56:45.687Z,99.45
2023-02-22T21:59:19.019Z,99.54
2023-02-22T22:01:51.833Z,99.27
2023-02-22T22:04:21.214Z,99.76
2023-02-22T22:06:50.989Z,100.00
2023-02-22T22:09:18.323Z,99.73
2023-02-22T22:11:53.624Z,99.74
2023-02-22T22:14:23.176Z,99.80
2023-02-22T22:16:53.860Z,99.88
2023-02-22T22:19:20.499Z,100.00
2023-02-22T22:21:48.795Z,99.78
2023-02-22T22:24:15.352Z,99.63
2023-02-22T22:26:43.982Z,99.61
2023-02-22T22:29:11.529Z,99.68
2023-02-22T22:31:38.595Z,99.61
2023-02-22T22:34:06.038Z,100.00
2023-02-22T22:36:34.490Z,100.00
2023-02-22T22:39:01.066Z,99.77
2023-02-22T22:41:30.708Z,100.00
2023-02-22T22:43:57.278Z,100.00
2023-02-22T22:46:23.840Z,99.99
2023-02-22T22:48:50.488Z,100.00
2023-02-22T22:51:20.828Z,100.00
2023-02-22T22:53:49.498Z,100.00
2023-02-22T22:56:26.037Z,100.00
2023-02-22T22:58:55.267Z,100.00
2023-02-22T23:01:27.942Z,100.00
2023-02-22T23:04:02.086Z,99.96
2023-02-22T23:06:32.770Z,100.00
2023-02-22T23:09:19.317Z,100.00
2023-02-22T23:11:53.281Z,100.00
2023-02-22T23:14:24.288Z,100.00
2023-02-22T23:16:56.398Z,100.00
2023-02-22T23:19:22.995Z,100.00
2023-02-22T23:21:50.254Z,99.96
2023-02-22T23:24:21.205Z,100.00
2023-02-22T23:26:51.087Z,100.00
2023-02-22T23:29:19.767Z,100.00
2023-02-22T23:31:48.682Z,100.00
2023-02-22T23:34:21.224Z,100.00
2023-02-22T23:36:48.514Z,100.00
2023-02-22T23:39:18.114Z,100.00
2023-02-22T23:41:44.639Z,100.00
2023-02-22T23:44:13.299Z,100.00
2023-02-22T23:46:41.230Z,100.00
2023-02-22T23:49:09.916Z,100.00
2023-02-22T23:51:44.457Z,100.00
2023-02-22T23:54:14.402Z,100.00
2023-02-22T23:56:47.325Z,100.00
2023-02-22T23:59:14.463Z,100.00
